Terminal Aerodrome Forecast
Issued by NWS North Platte, NE

Home | Current Version | Previous Version | Text Only | Print | Product List | Glossary On
Versions: 1 2 3 4 5 6 7 8 9 10 11 12 13 14
000
FTUS43 KLBF 091520 AAA
TAFVTN
TAF AMD
KVTN 091520Z 0915/1012 12008KT P6SM VCSH BKN070 OVC120
      TEMPO 0915/0917 5SM -SN BR BKN050
     FM091700 16010G16KT P6SM BKN050 OVC120
      TEMPO 0917/0918 6SM -SN BR OVC050
     FM092300 VRB05KT P6SM SCT120=

USA.gov is the U.S. government's official web portal to all federal, state and local government web resources and services.